createdAt,value
2017-10-29T04:42:11.096Z,32.67
2017-10-29T04:44:39.677Z,26.37
2017-10-29T04:47:08.190Z,40.60
2017-10-29T04:49:37.345Z,39.43
2017-10-29T04:52:05.895Z,39.27
2017-10-29T04:54:35.162Z,50.97
2017-10-29T04:57:03.549Z,42.53
2017-10-29T04:59:32.828Z,45.07
2017-10-29T05:02:01.173Z,60.30
2017-10-29T05:04:29.619Z,38.93
2017-10-29T05:06:57.964Z,55.13
2017-10-29T05:09:26.319Z,48.47
2017-10-29T05:11:54.927Z,51.20
2017-10-29T05:14:23.306Z,61.07
2017-10-29T05:16:51.708Z,36.57
2017-10-29T05:19:20.060Z,56.47
2017-10-29T05:21:48.398Z,72.70
2017-10-29T05:24:16.764Z,76.50
2017-10-29T05:26:46.398Z,57.53
2017-10-29T05:29:14.759Z,54.50
2017-10-29T05:31:44.762Z,63.03
2017-10-29T05:34:13.133Z,49.23
2017-10-29T05:36:41.473Z,45.43
2017-10-29T05:39:09.940Z,65.47
2017-10-29T05:41:38.303Z,63.47
2017-10-29T05:44:07.971Z,90.90
2017-10-29T05:46:36.291Z,60.80
2017-10-29T05:49:05.634Z,63.97
2017-10-29T05:51:33.979Z,73.93
2017-10-29T05:54:02.337Z,58.97
2017-10-29T05:56:31.710Z,95.33
2017-10-29T05:59:00.051Z,49.07
2017-10-29T06:01:28.682Z,41.40
2017-10-29T06:03:58.029Z,55.17
2017-10-29T06:06:26.362Z,49.93
2017-10-29T06:08:54.700Z,65.33
2017-10-29T06:11:23.154Z,60.10
2017-10-29T06:13:51.609Z,97.13
2017-10-29T06:16:20.726Z,50.30
2017-10-29T06:18:49.093Z,49.97
2017-10-29T06:21:17.446Z,28.93
2017-10-29T06:23:46.009Z,69.47
2017-10-29T06:26:14.408Z,46.93
2017-10-29T06:28:42.758Z,43.83
2017-10-29T06:31:11.099Z,23.97
2017-10-29T06:33:40.919Z,27.80
2017-10-29T06:36:10.028Z,16.93
2017-10-29T06:38:39.863Z,17.80
2017-10-29T06:41:08.599Z,9.83
2017-10-29T06:43:37.124Z,12.83
2017-10-29T06:46:05.477Z,8.43
2017-10-29T06:48:33.856Z,8.63
2017-10-29T06:51:03.697Z,8.50
2017-10-29T06:53:32.029Z,7.67
2017-10-29T06:56:00.551Z,4.87
2017-10-29T06:58:29.208Z,12.37
2017-10-29T07:00:58.088Z,9.30
2017-10-29T07:03:26.462Z,7.60
2017-10-29T07:05:55.529Z,8.27
2017-10-29T07:08:23.884Z,8.80
2017-10-29T07:10:52.245Z,6.23
2017-10-29T07:13:22.389Z,6.13
2017-10-29T07:15:50.749Z,6.63
2017-10-29T07:18:20.959Z,7.57
2017-10-29T07:20:50.085Z,7.47
2017-10-29T07:23:18.467Z,3.17
2017-10-29T07:25:46.842Z,3.13
2017-10-29T07:28:16.133Z,3.30
2017-10-29T07:30:45.756Z,11.30
2017-10-29T07:33:14.169Z,2.83
2017-10-29T07:35:43.263Z,7.93
2017-10-29T07:38:11.829Z,1.10
2017-10-29T07:40:40.693Z,3.17
2017-10-29T07:43:09.045Z,12.47
2017-10-29T07:45:38.854Z,5.80
2017-10-29T07:48:07.574Z,6.30
2017-10-29T07:50:35.930Z,5.33
2017-10-29T07:53:05.047Z,3.03
2017-10-29T07:55:34.184Z,2.43
2017-10-29T07:58:02.523Z,8.00
2017-10-29T08:00:30.867Z,1.50
2017-10-29T08:02:59.528Z,11.07
2017-10-29T08:05:28.686Z,2.70
2017-10-29T08:07:57.034Z,2.83
2017-10-29T08:10:25.397Z,2.50
2017-10-29T08:12:54.035Z,2.53
2017-10-29T08:15:22.742Z,8.20
2017-10-29T08:17:51.142Z,2.40
2017-10-29T08:20:19.497Z,5.03
2017-10-29T08:22:48.645Z,2.67
2017-10-29T08:25:17.080Z,3.33
2017-10-29T08:27:45.438Z,11.03
2017-10-29T08:30:13.793Z,2.47
2017-10-29T08:32:43.858Z,2.40
2017-10-29T08:35:12.297Z,6.63
2017-10-29T08:37:40.784Z,4.20
2017-10-29T08:40:09.931Z,4.63
2017-10-29T08:42:38.570Z,1.13
2017-10-29T08:45:07.686Z,3.63
2017-10-29T08:47:37.134Z,10.77
2017-10-29T08:50:05.488Z,6.73
2017-10-29T08:52:33.970Z,3.53
2017-10-29T08:55:04.680Z,1.67
2017-10-29T08:57:33.017Z,4.00
2017-10-29T09:00:02.097Z,81.60
2017-10-29T09:02:30.474Z,12.20
2017-10-29T09:04:58.822Z,23.13
2017-10-29T09:07:28.118Z,5.93
2017-10-29T09:09:56.818Z,5.97
2017-10-29T09:12:25.284Z,4.80
2017-10-29T09:14:54.383Z,2.63
2017-10-29T09:17:22.756Z,5.33
2017-10-29T09:19:51.345Z,5.80
2017-10-29T09:22:19.707Z,6.50
2017-10-29T09:24:48.091Z,5.03
2017-10-29T09:27:16.458Z,5.20
2017-10-29T09:29:47.670Z,1.47
2017-10-29T09:32:16.115Z,3.67
2017-10-29T09:34:44.506Z,4.27
2017-10-29T09:37:13.672Z,10.83
2017-10-29T09:39:42.069Z,1.73
2017-10-29T09:42:10.436Z,6.43
2017-10-29T09:44:39.144Z,1.57
2017-10-29T09:47:07.889Z,5.57
2017-10-29T09:49:36.981Z,8.43
2017-10-29T09:52:06.123Z,5.67
2017-10-29T09:54:34.786Z,12.80
2017-10-29T09:57:03.140Z,6.83
2017-10-29T09:59:31.490Z,1.03
2017-10-29T10:02:00.690Z,2.60
2017-10-29T10:04:29.058Z,2.20
2017-10-29T10:06:57.395Z,2.90
2017-10-29T10:09:25.798Z,3.77
2017-10-29T10:11:55.038Z,7.17
2017-10-29T10:14:23.406Z,2.27
2017-10-29T10:16:52.730Z,5.80
2017-10-29T10:19:21.303Z,8.73
2017-10-29T10:21:49.656Z,5.90
2017-10-29T10:24:18.029Z,2.87
2017-10-29T10:26:46.389Z,6.40
2017-10-29T10:29:15.592Z,1.30
2017-10-29T10:31:44.025Z,3.70
2017-10-29T10:34:13.504Z,1.93
2017-10-29T10:36:41.876Z,3.60
2017-10-29T10:39:11.123Z,15.23
2017-10-29T10:41:41.575Z,19.57
2017-10-29T10:44:09.917Z,2.30
2017-10-29T10:46:38.295Z,6.27
2017-10-29T10:49:06.686Z,10.03
2017-10-29T10:51:37.729Z,9.67
2017-10-29T10:54:06.893Z,3.40
2017-10-29T10:56:36.033Z,4.27
2017-10-29T10:59:05.129Z,7.73
2017-10-29T11:01:34.646Z,1.93
2017-10-29T11:04:03.004Z,11.37
2017-10-29T11:06:31.374Z,2.13
2017-10-29T11:08:59.970Z,8.00
2017-10-29T11:11:29.083Z,14.20
2017-10-29T11:13:58.070Z,3.53
2017-10-29T11:16:27.439Z,8.13
2017-10-29T11:18:55.790Z,5.33
2017-10-29T11:21:24.146Z,6.43
2017-10-29T11:23:53.358Z,8.23
2017-10-29T11:26:25.577Z,6.27
2017-10-29T11:28:54.139Z,13.93
2017-10-29T11:31:22.493Z,4.93
2017-10-29T11:33:51.301Z,11.97
2017-10-29T11:36:19.668Z,7.40
2017-10-29T11:38:48.789Z,8.47
2017-10-29T11:41:17.194Z,8.83
2017-10-29T11:43:45.619Z,7.27
2017-10-29T11:46:13.987Z,6.30
2017-10-29T11:48:42.656Z,6.73
2017-10-29T11:51:11.061Z,4.93
2017-10-29T11:53:39.415Z,9.63
2017-10-29T11:56:10.101Z,8.60
2017-10-29T11:58:38.478Z,2.37
2017-10-29T12:01:06.830Z,7.00
2017-10-29T12:03:36.086Z,3.70
2017-10-29T12:06:04.722Z,5.97
2017-10-29T12:08:33.383Z,2.50
2017-10-29T12:11:02.414Z,5.57
2017-10-29T12:13:30.786Z,6.43
2017-10-29T12:16:00.031Z,3.13
2017-10-29T12:18:28.379Z,2.63
2017-10-29T12:20:57.372Z,3.90
2017-10-29T12:23:25.790Z,2.53
2017-10-29T12:25:54.890Z,1.50
2017-10-29T12:28:24.899Z,7.90
2017-10-29T12:30:53.263Z,4.40
2017-10-29T12:33:22.565Z,2.07
2017-10-29T12:35:52.400Z,5.60
2017-10-29T12:38:20.756Z,1.07
2017-10-29T12:40:49.925Z,2.17
2017-10-29T12:43:19.060Z,4.00
2017-10-29T12:45:49.088Z,3.33
2017-10-29T12:48:18.332Z,3.23
2017-10-29T12:50:48.937Z,7.77
2017-10-29T12:53:18.039Z,5.90
2017-10-29T12:55:47.455Z,1.50
2017-10-29T12:58:17.130Z,2.50
2017-10-29T13:00:45.681Z,1.67
2017-10-29T13:03:14.716Z,1.23
2017-10-29T13:05:45.211Z,2.87
2017-10-29T13:08:13.574Z,1.37
2017-10-29T13:10:41.940Z,2.50
2017-10-29T13:13:10.475Z,1.73
2017-10-29T13:15:38.996Z,3.33
2017-10-29T13:18:08.253Z,9.17
2017-10-29T13:20:36.648Z,2.83
2017-10-29T13:23:06.502Z,3.80
2017-10-29T13:25:35.119Z,3.80
2017-10-29T13:28:03.499Z,2.07
2017-10-29T13:30:32.902Z,1.87
2017-10-29T13:33:02.465Z,2.60
2017-10-29T13:35:31.659Z,3.53
2017-10-29T13:38:01.487Z,1.57
2017-10-29T13:40:30.009Z,3.07
2017-10-29T13:42:59.318Z,5.90
2017-10-29T13:45:28.459Z,4.77
2017-10-29T13:47:57.631Z,2.00
2017-10-29T13:50:26.001Z,2.00
2017-10-29T13:52:54.344Z,1.67
2017-10-29T13:55:23.513Z,2.20
2017-10-29T13:57:52.971Z,1.43
2017-10-29T14:00:21.356Z,1.23
2017-10-29T14:02:49.726Z,2.37
2017-10-29T14:05:18.119Z,1.30
2017-10-29T14:07:47.763Z,1.47
2017-10-29T14:10:16.737Z,2.97
2017-10-29T14:12:45.874Z,1.00
2017-10-29T14:15:14.246Z,1.73
2017-10-29T14:17:43.311Z,5.63
2017-10-29T14:20:12.884Z,6.70
2017-10-29T14:22:42.116Z,2.00
2017-10-29T14:25:10.467Z,2.40
2017-10-29T14:27:39.734Z,3.70
2017-10-29T14:30:08.120Z,2.13
2017-10-29T14:32:37.108Z,2.50
2017-10-29T14:35:05.506Z,3.87
2017-10-29T14:37:33.856Z,1.63
2017-10-29T14:40:02.865Z,2.30
2017-10-29T14:42:31.419Z,4.27
2017-10-29T14:45:02.516Z,4.97
2017-10-29T14:47:31.117Z,3.43
2017-10-29T14:50:00.249Z,2.60
2017-10-29T14:52:29.216Z,3.97
2017-10-29T14:54:57.565Z,1.93
2017-10-29T14:57:26.849Z,4.53
2017-10-29T14:59:55.262Z,1.90
2017-10-29T15:02:23.674Z,6.83
2017-10-29T15:04:52.139Z,4.80
2017-10-29T15:07:20.586Z,2.10
2017-10-29T15:09:50.134Z,2.40
2017-10-29T15:12:18.650Z,2.37
2017-10-29T15:14:47.018Z,7.13
2017-10-29T15:17:15.376Z,2.03
2017-10-29T15:19:43.762Z,7.47
2017-10-29T15:22:12.989Z,5.67
2017-10-29T15:24:41.362Z,4.70
2017-10-29T15:27:10.731Z,12.17
2017-10-29T15:29:39.351Z,5.90
2017-10-29T15:32:07.693Z,7.70
2017-10-29T15:34:36.714Z,8.27
2017-10-29T15:37:05.062Z,6.83
2017-10-29T15:39:34.299Z,6.53
2017-10-29T15:42:02.682Z,13.20
2017-10-29T15:44:31.074Z,6.40
2017-10-29T15:47:00.222Z,11.80
2017-10-29T15:49:29.351Z,12.20
2017-10-29T15:51:57.861Z,17.63
2017-10-29T15:54:26.393Z,12.43
2017-10-29T15:56:55.079Z,10.87
2017-10-29T15:59:23.456Z,8.60
2017-10-29T16:01:52.940Z,10.90
2017-10-29T16:04:22.850Z,7.63
2017-10-29T16:06:51.963Z,9.33
2017-10-29T16:09:20.338Z,16.23
2017-10-29T16:11:48.788Z,13.30
2017-10-29T16:14:17.849Z,7.80
2017-10-29T16:16:47.802Z,20.03
2017-10-29T16:19:16.858Z,18.67
2017-10-29T16:21:45.220Z,18.23
2017-10-29T16:24:13.571Z,27.50
2017-10-29T16:26:43.421Z,10.77
2017-10-29T16:29:11.910Z,21.00
2017-10-29T16:31:41.232Z,7.00
2017-10-29T16:34:09.680Z,24.80
2017-10-29T16:36:38.043Z,16.17
2017-10-29T16:39:07.294Z,15.90
2017-10-29T16:41:36.590Z,13.40
2017-10-29T16:44:04.946Z,35.43
2017-10-29T16:46:33.309Z,26.13
2017-10-29T16:49:02.639Z,16.80
2017-10-29T16:51:31.002Z,25.17
2017-10-29T16:53:59.360Z,33.17
2017-10-29T16:56:28.607Z,28.37
2017-10-29T16:58:56.976Z,26.80
2017-10-29T17:01:26.565Z,21.50
2017-10-29T17:03:55.770Z,12.87
2017-10-29T17:06:24.617Z,13.93
2017-10-29T17:08:53.338Z,21.23
2017-10-29T17:11:22.459Z,12.07
2017-10-29T17:13:51.606Z,22.43
2017-10-29T17:16:21.592Z,17.30
2017-10-29T17:18:50.515Z,14.87
2017-10-29T17:21:18.885Z,24.50
2017-10-29T17:23:49.036Z,18.43
2017-10-29T17:26:17.399Z,23.07
2017-10-29T17:28:46.500Z,11.97
2017-10-29T17:31:14.868Z,19.43
2017-10-29T17:33:44.000Z,20.50
2017-10-29T17:36:12.383Z,18.17
2017-10-29T17:38:40.732Z,16.80
2017-10-29T17:41:09.269Z,39.80
2017-10-29T17:43:37.631Z,14.77
2017-10-29T17:46:07.634Z,28.43
2017-10-29T17:48:36.062Z,14.67
2017-10-29T17:51:05.122Z,21.60
2017-10-29T17:53:34.389Z,15.33
2017-10-29T17:56:02.827Z,15.60
2017-10-29T17:58:31.631Z,12.33
2017-10-29T18:01:00.194Z,15.67
2017-10-29T18:03:28.714Z,13.13
2017-10-29T18:05:57.281Z,17.10
2017-10-29T18:08:25.719Z,14.33
2017-10-29T18:10:54.791Z,26.00
2017-10-29T18:13:23.152Z,17.97
2017-10-29T18:15:52.299Z,27.23
2017-10-29T18:18:21.766Z,15.60
2017-10-29T18:20:50.898Z,14.40
2017-10-29T18:23:19.972Z,22.73
2017-10-29T18:25:49.658Z,19.50
2017-10-29T18:28:21.650Z,28.53
2017-10-29T18:30:50.126Z,12.40
2017-10-29T18:33:18.497Z,43.33
2017-10-29T18:35:46.920Z,16.83
2017-10-29T18:38:15.883Z,25.70
2017-10-29T18:40:44.708Z,22.23
2017-10-29T18:43:13.090Z,18.97
2017-10-29T18:45:41.870Z,12.13
2017-10-29T18:48:10.424Z,10.43
2017-10-29T18:50:38.976Z,21.93
2017-10-29T18:53:07.414Z,24.03
2017-10-29T18:55:35.781Z,22.57
2017-10-29T18:58:04.139Z,11.37
2017-10-29T19:00:33.395Z,26.10
2017-10-29T19:03:02.213Z,14.33
2017-10-29T19:05:33.227Z,17.80
2017-10-29T19:08:02.182Z,11.30
2017-10-29T19:10:30.542Z,25.63
2017-10-29T19:12:59.774Z,16.07
2017-10-29T19:15:28.498Z,21.20
2017-10-29T19:17:57.594Z,14.20
2017-10-29T19:20:26.724Z,21.03
2017-10-29T19:22:55.106Z,17.90
2017-10-29T19:25:24.239Z,17.30
2017-10-29T19:27:52.703Z,16.93
2017-10-29T19:30:21.948Z,23.30
2017-10-29T19:32:50.289Z,15.57
2017-10-29T19:35:19.809Z,22.73
2017-10-29T19:37:48.245Z,21.53
2017-10-29T19:40:17.399Z,15.50
2017-10-29T19:42:45.836Z,24.60
2017-10-29T19:45:15.143Z,35.50
2017-10-29T19:47:44.073Z,25.70
2017-10-29T19:50:14.701Z,30.83
2017-10-29T19:52:44.221Z,27.07
2017-10-29T19:55:13.107Z,25.43
2017-10-29T19:57:41.453Z,22.97
2017-10-29T20:00:10.675Z,22.37
2017-10-29T20:02:39.821Z,40.73
2017-10-29T20:05:08.809Z,23.27
2017-10-29T20:07:38.518Z,23.30
2017-10-29T20:10:07.001Z,32.57
2017-10-29T20:12:36.119Z,34.93
2017-10-29T20:15:04.582Z,31.20
2017-10-29T20:17:33.311Z,30.40
2017-10-29T20:20:02.678Z,22.93
2017-10-29T20:22:31.039Z,29.43
2017-10-29T20:25:00.350Z,26.63
2017-10-29T20:27:28.695Z,36.83
2017-10-29T20:29:57.074Z,30.63
2017-10-29T20:32:26.085Z,36.60
2017-10-29T20:34:55.208Z,36.27
2017-10-29T20:37:23.643Z,37.47
2017-10-29T20:39:51.977Z,26.70
2017-10-29T20:42:21.001Z,57.30
2017-10-29T20:44:49.388Z,23.87
2017-10-29T20:47:18.459Z,37.70
2017-10-29T20:49:47.029Z,40.23
2017-10-29T20:52:15.435Z,41.70
2017-10-29T20:54:44.548Z,24.10
2017-10-29T20:57:12.884Z,44.27
2017-10-29T20:59:41.818Z,28.33
2017-10-29T21:02:10.852Z,32.10
2017-10-29T21:04:39.229Z,33.30
2017-10-29T21:07:07.620Z,39.87
2017-10-29T21:09:36.646Z,38.27
2017-10-29T21:12:04.980Z,32.30
2017-10-29T21:14:33.362Z,51.77
2017-10-29T21:17:02.739Z,36.90
2017-10-29T21:19:31.887Z,28.70
2017-10-29T21:22:00.464Z,36.17
2017-10-29T21:24:28.839Z,20.47
2017-10-29T21:26:57.836Z,71.13
2017-10-29T21:29:26.210Z,31.90
2017-10-29T21:31:55.470Z,41.90
2017-10-29T21:34:24.461Z,36.63
2017-10-29T21:36:53.533Z,39.90
2017-10-29T21:39:21.926Z,24.30
2017-10-29T21:41:50.282Z,28.17
2017-10-29T21:44:19.626Z,27.97
2017-10-29T21:46:49.017Z,24.83
2017-10-29T21:49:17.998Z,44.37
2017-10-29T21:51:46.383Z,30.40
2017-10-29T21:54:15.314Z,36.47
2017-10-29T21:56:43.691Z,25.93
2017-10-29T21:59:13.581Z,27.37
2017-10-29T22:01:42.861Z,32.87
2017-10-29T22:04:11.206Z,34.87
2017-10-29T22:06:39.766Z,35.33
2017-10-29T22:09:09.100Z,33.73
2017-10-29T22:11:37.461Z,38.00
2017-10-29T22:14:05.847Z,27.87
2017-10-29T22:16:34.193Z,21.87
2017-10-29T22:19:03.355Z,27.47
2017-10-29T22:21:31.746Z,20.50
2017-10-29T22:24:01.017Z,18.93
2017-10-29T22:26:29.392Z,36.23
2017-10-29T22:28:57.833Z,34.97
2017-10-29T22:31:26.520Z,32.87
2017-10-29T22:33:55.681Z,34.37
2017-10-29T22:36:24.094Z,34.30
2017-10-29T22:38:52.475Z,19.80
2017-10-29T22:41:21.600Z,29.90
2017-10-29T22:43:50.313Z,47.93
2017-10-29T22:46:18.700Z,21.13
2017-10-29T22:48:47.069Z,28.93
2017-10-29T22:51:15.502Z,34.57
2017-10-29T22:53:44.631Z,15.60
2017-10-29T22:56:12.984Z,33.87
2017-10-29T22:58:42.127Z,29.63
2017-10-29T23:01:11.891Z,31.23
2017-10-29T23:03:41.885Z,31.03
2017-10-29T23:06:28.201Z,34.30
2017-10-29T23:08:56.529Z,38.87
2017-10-29T23:11:24.903Z,32.80
2017-10-29T23:13:53.278Z,30.83
2017-10-29T23:16:21.763Z,26.67
2017-10-29T23:18:50.124Z,39.30
2017-10-29T23:21:19.250Z,31.93
2017-10-29T23:23:48.403Z,28.93
2017-10-29T23:26:17.067Z,26.77
2017-10-29T23:28:45.509Z,24.00
2017-10-29T23:31:15.455Z,29.40
2017-10-29T23:33:43.802Z,18.93
2017-10-29T23:36:12.177Z,40.57
2017-10-29T23:38:41.987Z,20.83
2017-10-29T23:41:10.410Z,28.77
2017-10-29T23:43:38.845Z,32.33
2017-10-29T23:46:07.955Z,21.27
2017-10-29T23:48:37.080Z,19.90
2017-10-29T23:51:06.178Z,21.10
2017-10-29T23:53:34.540Z,25.83
2017-10-29T23:56:03.108Z,31.70
2017-10-29T23:58:32.307Z,15.13
